createdAt,value
2019-05-23T00:02:15.598Z,50.01
2019-05-23T00:05:13.352Z,50.10
2019-05-23T00:08:01.919Z,50.07
2019-05-23T00:10:55.940Z,50.07
2019-05-23T00:13:50.934Z,50.09
2019-05-23T00:16:26.893Z,50.29
2019-05-23T00:18:58.920Z,49.89
2019-05-23T00:21:31.057Z,49.50
2019-05-23T00:24:02.992Z,49.82
2019-05-23T00:26:36.963Z,50.27
2019-05-23T00:29:10.309Z,50.30
2019-05-23T00:31:50.419Z,49.90
2019-05-23T00:34:21.845Z,50.29
2019-05-23T00:36:55.169Z,50.64
2019-05-23T00:39:26.185Z,50.68
2019-05-23T00:41:58.853Z,50.24
2019-05-23T00:44:31.326Z,50.15
2019-05-23T00:47:05.509Z,50.56
2019-05-23T00:49:36.436Z,50.93
2019-05-23T00:52:09.564Z,51.16
2019-05-23T00:54:41.294Z,51.08
2019-05-23T00:57:13.148Z,51.02
2019-05-23T00:59:43.863Z,50.24
2019-05-23T01:02:15.574Z,49.82
2019-05-23T01:04:46.199Z,50.46
2019-05-23T01:07:20.471Z,50.71
2019-05-23T01:09:52.230Z,51.14
2019-05-23T01:12:25.168Z,51.21
2019-05-23T01:14:55.494Z,50.76
2019-05-23T01:17:29.054Z,51.23
2019-05-23T01:20:00.944Z,51.21
2019-05-23T01:22:32.192Z,50.38
2019-05-23T01:25:05.263Z,51.00
2019-05-23T01:27:36.701Z,51.54
2019-05-23T01:30:09.598Z,51.75
2019-05-23T01:32:47.288Z,51.86
2019-05-23T01:35:20.674Z,51.96
2019-05-23T01:37:55.106Z,52.19
2019-05-23T01:40:25.727Z,52.36
2019-05-23T01:42:57.908Z,52.51
2019-05-23T01:45:28.327Z,52.79
2019-05-23T01:47:59.830Z,52.85
2019-05-23T01:50:30.761Z,52.84
2019-05-23T01:53:01.986Z,53.31
2019-05-23T01:55:32.808Z,53.64
2019-05-23T01:58:04.761Z,54.17
2019-05-23T02:00:35.572Z,54.58
2019-05-23T02:03:07.861Z,54.63
2019-05-23T02:05:39.147Z,54.87
2019-05-23T02:08:15.491Z,55.08
2019-05-23T02:10:46.031Z,55.00
2019-05-23T02:13:17.760Z,55.40
2019-05-23T02:15:49.459Z,55.65
2019-05-23T02:18:22.170Z,55.65
2019-05-23T02:20:53.984Z,55.88
2019-05-23T02:23:25.377Z,55.71
2019-05-23T02:25:58.168Z,55.70
2019-05-23T02:28:31.087Z,55.28
2019-05-23T02:31:02.251Z,55.50
2019-05-23T02:33:36.158Z,55.45
2019-05-23T02:36:07.033Z,55.51
2019-05-23T02:38:49.759Z,55.94
2019-05-23T02:41:39.889Z,55.94
2019-05-23T02:44:11.826Z,56.46
2019-05-23T02:46:53.320Z,56.68
2019-05-23T02:49:28.777Z,56.92
2019-05-23T02:52:02.009Z,56.85
2019-05-23T02:54:37.200Z,56.93
2019-05-23T02:57:06.764Z,56.91
2019-05-23T02:59:48.103Z,56.92
2019-05-23T03:02:38.186Z,57.20
2019-05-23T03:05:15.500Z,56.83
2019-05-23T03:07:45.822Z,56.99
2019-05-23T03:10:20.657Z,57.24
2019-05-23T03:12:53.270Z,57.31
2019-05-23T03:15:28.434Z,57.72
2019-05-23T03:18:01.781Z,58.00
2019-05-23T03:20:34.721Z,57.88
2019-05-23T03:23:11.696Z,58.25
2019-05-23T03:26:01.519Z,58.15
2019-05-23T03:28:39.719Z,58.48
2019-05-23T03:31:30.634Z,58.41
2019-05-23T03:33:58.588Z,58.06
2019-05-23T03:36:30.342Z,58.39
2019-05-23T03:39:02.068Z,58.61
2019-05-23T03:41:33.248Z,58.76
2019-05-23T03:44:05.033Z,59.00
2019-05-23T03:46:38.595Z,58.85
2019-05-23T03:49:10.762Z,59.16
2019-05-23T03:51:41.802Z,59.26
2019-05-23T03:54:15.422Z,59.42
2019-05-23T03:56:47.547Z,57.60
2019-05-23T03:59:20.045Z,57.27
2019-05-23T04:01:52.579Z,56.98
2019-05-23T04:04:24.689Z,57.04
2019-05-23T04:06:57.055Z,56.83
2019-05-23T04:09:28.090Z,56.42
2019-05-23T04:11:58.933Z,56.83
2019-05-23T04:14:30.071Z,56.90
2019-05-23T04:17:05.213Z,56.60
2019-05-23T04:19:35.580Z,56.92
2019-05-23T04:22:09.045Z,57.32
2019-05-23T04:24:39.887Z,57.26
2019-05-23T04:27:14.699Z,57.00
2019-05-23T04:29:45.522Z,56.90
2019-05-23T04:32:17.745Z,56.39
2019-05-23T04:34:48.483Z,56.20
2019-05-23T04:37:19.558Z,56.30
2019-05-23T04:39:51.383Z,56.56
2019-05-23T04:42:21.743Z,56.19
2019-05-23T04:44:52.295Z,56.05
2019-05-23T04:47:26.388Z,55.92
2019-05-23T04:49:57.137Z,56.07
2019-05-23T04:52:28.313Z,55.79
2019-05-23T04:54:59.446Z,54.93
2019-05-23T04:57:31.604Z,54.63
2019-05-23T05:00:03.235Z,53.90
2019-05-23T05:02:36.823Z,54.51
2019-05-23T05:05:07.952Z,54.29
2019-05-23T05:07:41.564Z,53.91
2019-05-23T05:10:16.144Z,53.15
2019-05-23T05:12:47.742Z,51.92
2019-05-23T05:15:18.752Z,51.77
2019-05-23T05:17:51.711Z,50.39
2019-05-23T05:20:22.622Z,49.13
2019-05-23T05:22:53.430Z,46.96
2019-05-23T05:25:25.089Z,46.40
2019-05-23T05:27:56.337Z,45.29
2019-05-23T05:30:28.142Z,45.72
2019-05-23T05:32:59.354Z,46.11
2019-05-23T05:35:30.284Z,46.06
2019-05-23T05:38:03.270Z,45.93
2019-05-23T05:40:34.558Z,44.64
2019-05-23T05:43:05.737Z,43.53
2019-05-23T05:45:36.468Z,42.41
2019-05-23T05:48:07.305Z,41.71
2019-05-23T05:50:38.981Z,40.51
2019-05-23T05:53:10.208Z,39.13
2019-05-23T05:55:40.508Z,38.28
2019-05-23T05:58:11.793Z,36.95
2019-05-23T06:00:49.997Z,36.46
2019-05-23T06:03:22.066Z,37.48
2019-05-23T06:05:55.348Z,38.67
2019-05-23T06:08:33.230Z,39.56
2019-05-23T06:11:04.166Z,39.56
2019-05-23T06:13:35.523Z,39.19
2019-05-23T06:16:06.071Z,37.34
2019-05-23T06:18:38.114Z,34.99
2019-05-23T06:21:11.548Z,34.92
2019-05-23T06:23:42.110Z,35.55
2019-05-23T06:26:12.636Z,36.86
2019-05-23T06:28:48.367Z,37.84
2019-05-23T06:31:19.288Z,38.55
2019-05-23T06:33:49.779Z,37.88
2019-05-23T06:36:20.096Z,37.25
2019-05-23T06:38:52.118Z,36.68
2019-05-23T06:41:24.235Z,35.77
2019-05-23T06:43:55.205Z,34.28
2019-05-23T06:46:26.016Z,33.06
2019-05-23T06:48:57.143Z,32.79
2019-05-23T06:51:27.968Z,32.40
2019-05-23T06:53:59.708Z,31.82
2019-05-23T06:56:32.329Z,31.85
2019-05-23T06:59:04.991Z,31.14
2019-05-23T07:01:35.307Z,30.83
2019-05-23T07:04:08.393Z,29.98
2019-05-23T07:06:39.078Z,29.49
2019-05-23T07:09:13.237Z,30.09
2019-05-23T07:11:43.961Z,30.43
2019-05-23T07:14:14.937Z,31.37
2019-05-23T07:16:45.597Z,30.25
2019-05-23T07:19:17.497Z,29.30
2019-05-23T07:21:47.916Z,29.05
2019-05-23T07:24:19.483Z,28.52
2019-05-23T07:26:50.115Z,27.84
2019-05-23T07:29:21.740Z,29.02
2019-05-23T07:31:52.058Z,29.13
2019-05-23T07:34:24.085Z,28.94
2019-05-23T07:36:55.050Z,28.52
2019-05-23T07:39:28.191Z,28.39
2019-05-23T07:41:59.166Z,28.50
2019-05-23T07:44:47.186Z,27.57
2019-05-23T07:47:04.101Z,27.71
2019-05-23T07:49:34.684Z,28.64
2019-05-23T07:52:05.847Z,27.45
2019-05-23T07:54:41.464Z,26.50
2019-05-23T07:57:13.346Z,25.78
2019-05-23T07:59:46.310Z,25.23
2019-05-23T08:02:25.698Z,25.04
2019-05-23T08:04:56.581Z,25.30
2019-05-23T08:07:27.599Z,25.71
2019-05-23T08:10:01.064Z,25.42
2019-05-23T08:12:31.761Z,25.21
2019-05-23T08:15:02.531Z,24.86
2019-05-23T08:17:33.516Z,24.48
2019-05-23T08:20:06.108Z,24.99
2019-05-23T08:22:37.018Z,24.55
2019-05-23T08:25:08.111Z,24.54
2019-05-23T08:27:38.809Z,24.24
2019-05-23T08:30:12.733Z,23.82
2019-05-23T08:32:43.406Z,23.64
2019-05-23T08:35:17.990Z,23.54
2019-05-23T08:37:48.029Z,23.56
2019-05-23T08:40:23.322Z,24.78
2019-05-23T08:42:53.940Z,24.78
2019-05-23T08:45:24.930Z,24.56
2019-05-23T08:47:55.719Z,24.25
2019-05-23T08:50:27.163Z,23.85
2019-05-23T08:52:57.481Z,23.79
2019-05-23T08:55:31.091Z,23.72
2019-05-23T08:58:01.674Z,23.27
2019-05-23T09:00:38.401Z,23.96
2019-05-23T09:03:08.723Z,24.20
2019-05-23T09:05:41.419Z,24.76
2019-05-23T09:08:16.673Z,24.93
2019-05-23T09:10:48.146Z,24.93
2019-05-23T09:13:19.499Z,25.69
2019-05-23T09:15:53.200Z,25.95
2019-05-23T09:18:22.861Z,25.95
2019-05-23T09:20:58.434Z,26.63
2019-05-23T09:23:29.340Z,26.37
2019-05-23T09:26:00.018Z,26.63
2019-05-23T09:28:32.882Z,27.55
2019-05-23T09:31:09.224Z,26.92
2019-05-23T09:33:42.281Z,26.62
2019-05-23T09:36:14.803Z,26.32
2019-05-23T09:38:45.923Z,26.43
2019-05-23T09:41:16.937Z,25.89
2019-05-23T09:43:47.666Z,26.43
2019-05-23T09:46:18.051Z,26.84
2019-05-23T09:48:48.732Z,24.94
2019-05-23T09:51:21.330Z,25.29
2019-05-23T09:53:53.744Z,25.28
2019-05-23T09:56:24.524Z,25.40
2019-05-23T09:58:55.031Z,25.83
2019-05-23T10:01:26.541Z,25.98
2019-05-23T10:03:57.280Z,25.29
2019-05-23T10:06:31.006Z,25.33
2019-05-23T10:09:02.125Z,26.24
2019-05-23T10:11:32.581Z,26.66
2019-05-23T10:14:06.383Z,25.90
2019-05-23T10:16:37.038Z,26.77
2019-05-23T10:19:07.918Z,27.37
2019-05-23T10:21:38.345Z,28.03
2019-05-23T10:24:10.831Z,27.74
2019-05-23T10:26:41.186Z,27.26
2019-05-23T10:29:11.805Z,27.19
2019-05-23T10:31:43.015Z,27.27
2019-05-23T10:34:15.018Z,27.15
2019-05-23T10:36:45.893Z,26.22
2019-05-23T10:39:17.707Z,25.76
2019-05-23T10:41:49.117Z,25.86
2019-05-23T10:44:20.703Z,25.44
2019-05-23T10:46:52.424Z,27.73
2019-05-23T10:49:22.811Z,25.90
2019-05-23T10:51:53.678Z,26.06
2019-05-23T10:54:25.787Z,25.94
2019-05-23T10:56:56.076Z,26.69
2019-05-23T10:59:26.400Z,26.46
2019-05-23T11:01:56.872Z,27.13
2019-05-23T11:04:27.713Z,27.62
2019-05-23T11:06:58.986Z,27.75
2019-05-23T11:09:37.965Z,28.42
2019-05-23T11:12:01.910Z,26.68
2019-05-23T11:14:32.777Z,27.17
2019-05-23T11:17:03.917Z,27.22
2019-05-23T11:19:35.611Z,27.96
2019-05-23T11:22:07.707Z,27.60
2019-05-23T11:24:38.490Z,27.17
2019-05-23T11:27:10.060Z,26.23
2019-05-23T11:29:40.416Z,26.55
2019-05-23T11:32:11.079Z,26.22
2019-05-23T11:34:42.115Z,27.34
2019-05-23T11:37:16.692Z,27.04
2019-05-23T11:39:49.741Z,26.68
2019-05-23T11:42:19.631Z,27.33
2019-05-23T11:44:50.362Z,27.69
2019-05-23T11:47:22.178Z,27.35
2019-05-23T11:49:52.544Z,27.77
2019-05-23T11:52:23.699Z,27.25
2019-05-23T11:54:55.635Z,28.04
2019-05-23T11:57:27.006Z,26.69
2019-05-23T11:59:57.508Z,26.96
2019-05-23T12:02:33.032Z,26.31
2019-05-23T12:05:06.589Z,26.22
2019-05-23T12:07:37.808Z,26.46
2019-05-23T12:10:09.462Z,26.11
2019-05-23T12:12:41.998Z,26.60
2019-05-23T12:15:15.848Z,26.89
2019-05-23T12:17:47.833Z,27.13
2019-05-23T12:20:18.469Z,26.24
2019-05-23T12:22:49.610Z,26.42
2019-05-23T12:25:23.071Z,26.72
2019-05-23T12:27:52.536Z,26.59
2019-05-23T12:30:23.563Z,26.71
2019-05-23T12:32:54.618Z,27.08
2019-05-23T12:35:24.934Z,27.31
2019-05-23T12:37:56.424Z,27.29
2019-05-23T12:40:28.035Z,27.34
2019-05-23T12:42:59.585Z,27.53
2019-05-23T12:45:30.363Z,27.04
2019-05-23T12:48:04.003Z,27.64
2019-05-23T12:50:46.794Z,27.77
2019-05-23T12:53:19.176Z,28.52
2019-05-23T12:55:49.707Z,29.51
2019-05-23T12:58:22.121Z,30.16
2019-05-23T13:01:00.248Z,30.47
2019-05-23T13:03:34.021Z,31.10
2019-05-23T13:06:04.236Z,31.42
2019-05-23T13:08:35.845Z,31.92
2019-05-23T13:11:06.523Z,32.12
2019-05-23T13:13:37.828Z,32.13
2019-05-23T13:16:08.069Z,32.71
2019-05-23T13:18:39.794Z,32.66
2019-05-23T13:21:10.339Z,32.33
2019-05-23T13:23:41.181Z,32.60
2019-05-23T13:26:12.308Z,32.36
2019-05-23T13:28:42.920Z,31.67
2019-05-23T13:31:13.552Z,31.33
2019-05-23T13:33:44.203Z,31.23
2019-05-23T13:36:15.945Z,31.65
2019-05-23T13:41:26.571Z,31.13
2019-05-23T13:43:57.625Z,31.28
2019-05-23T13:46:28.025Z,31.09
2019-05-23T13:48:59.380Z,31.12
2019-05-23T13:51:30.191Z,31.14
2019-05-23T13:54:01.418Z,30.77
2019-05-23T13:56:32.225Z,31.08
2019-05-23T13:59:06.977Z,30.87
2019-05-23T14:01:38.085Z,31.29
2019-05-23T14:04:09.263Z,31.20
2019-05-23T14:06:39.590Z,31.22
2019-05-23T14:09:12.770Z,30.95
2019-05-23T14:11:44.087Z,30.78
2019-05-23T14:14:15.525Z,30.87
2019-05-23T14:16:57.431Z,30.30
2019-05-23T14:19:30.204Z,30.39
2019-05-23T14:22:02.090Z,30.88
2019-05-23T14:24:37.335Z,30.30
2019-05-23T14:27:15.645Z,30.32
2019-05-23T14:29:50.162Z,30.45
2019-05-23T14:32:22.431Z,30.27
2019-05-23T14:34:54.518Z,29.86
2019-05-23T14:37:26.398Z,29.53
2019-05-23T14:40:00.030Z,30.13
2019-05-23T14:42:37.691Z,29.87
2019-05-23T14:45:10.685Z,30.06
2019-05-23T14:47:57.947Z,29.68
2019-05-23T14:50:39.315Z,29.03
2019-05-23T14:53:12.781Z,29.25
2019-05-23T14:55:45.821Z,29.22
2019-05-23T14:58:16.954Z,31.14
2019-05-23T15:00:50.338Z,32.62
2019-05-23T15:03:20.782Z,32.85
2019-05-23T15:05:52.864Z,33.50
2019-05-23T15:08:23.364Z,33.90
2019-05-23T15:10:53.928Z,34.39
2019-05-23T15:13:26.251Z,35.87
2019-05-23T15:15:59.273Z,37.31
2019-05-23T15:18:29.701Z,37.54
2019-05-23T15:21:01.076Z,39.99
2019-05-23T15:23:31.462Z,39.87
2019-05-23T15:26:20.978Z,40.13
2019-05-23T15:28:36.495Z,39.98
2019-05-23T15:31:08.021Z,41.28
2019-05-23T15:33:38.352Z,42.11
2019-05-23T15:36:09.533Z,41.75
2019-05-23T15:38:40.763Z,40.74
2019-05-23T15:41:13.126Z,39.63
2019-05-23T15:43:43.626Z,40.05
2019-05-23T15:46:14.299Z,40.19
2019-05-23T15:48:45.023Z,39.89
2019-05-23T15:51:17.732Z,40.53
2019-05-23T15:53:56.084Z,41.99
2019-05-23T15:56:41.859Z,42.89
2019-05-23T15:59:25.117Z,43.74
2019-05-23T16:02:09.316Z,44.28
2019-05-23T16:04:39.442Z,45.28
2019-05-23T16:07:10.962Z,45.67
2019-05-23T16:09:43.278Z,46.58
2019-05-23T16:12:16.663Z,46.91
2019-05-23T16:14:47.456Z,48.06
2019-05-23T16:17:18.284Z,47.97
2019-05-23T16:19:48.695Z,47.80
2019-05-23T16:22:20.671Z,47.48
2019-05-23T16:24:51.108Z,47.80
2019-05-23T16:27:22.014Z,48.25
2019-05-23T16:29:53.380Z,48.34
2019-05-23T16:32:25.435Z,48.86
2019-05-23T16:34:55.874Z,49.03
2019-05-23T16:37:26.557Z,48.29
2019-05-23T16:39:57.207Z,48.38
2019-05-23T16:42:28.964Z,48.10
2019-05-23T16:44:59.289Z,48.19
2019-05-23T16:47:30.426Z,48.28
2019-05-23T16:50:00.748Z,48.50
2019-05-23T16:52:33.395Z,48.81
2019-05-23T16:55:05.704Z,49.30
2019-05-23T16:57:38.448Z,48.88
2019-05-23T17:00:29.088Z,49.19
2019-05-23T17:03:19.353Z,47.99
2019-05-23T17:05:58.117Z,47.38
2019-05-23T17:08:30.572Z,48.02
2019-05-23T17:11:20.122Z,48.23
2019-05-23T17:13:56.600Z,48.87
2019-05-23T17:16:31.228Z,48.55
2019-05-23T17:19:04.930Z,48.53
2019-05-23T17:21:37.134Z,48.35
2019-05-23T17:24:10.286Z,48.33
2019-05-23T17:26:42.923Z,48.37
2019-05-23T17:29:18.831Z,49.00
2019-05-23T17:31:50.748Z,49.77
2019-05-23T17:34:23.464Z,51.16
2019-05-23T17:36:54.629Z,51.92
2019-05-23T17:39:28.007Z,50.79
2019-05-23T17:41:58.691Z,51.36
2019-05-23T17:44:30.503Z,51.56
2019-05-23T17:47:00.927Z,51.00
2019-05-23T17:49:32.918Z,50.52
2019-05-23T17:52:03.354Z,51.76
2019-05-23T17:54:34.410Z,52.17
2019-05-23T17:57:05.272Z,52.08
2019-05-23T17:59:36.727Z,51.93
2019-05-23T18:02:07.658Z,51.59
2019-05-23T18:04:38.413Z,51.40
2019-05-23T18:07:09.880Z,50.45
2019-05-23T18:09:40.235Z,51.39
2019-05-23T18:12:10.572Z,48.40
2019-05-23T18:14:43.972Z,48.47
2019-05-23T18:17:15.392Z,46.72
2019-05-23T18:19:46.874Z,46.76
2019-05-23T18:22:18.483Z,45.37
2019-05-23T18:24:49.313Z,43.84
2019-05-23T18:27:20.206Z,44.81
2019-05-23T18:29:52.011Z,45.54
2019-05-23T18:32:23.521Z,44.92
2019-05-23T18:34:55.270Z,43.23
2019-05-23T18:37:25.905Z,42.57
2019-05-23T18:39:56.676Z,42.36
2019-05-23T18:42:27.232Z,44.08
2019-05-23T18:44:59.122Z,44.97
2019-05-23T18:47:31.490Z,44.22
2019-05-23T18:50:02.700Z,44.76
2019-05-23T18:52:34.080Z,44.53
2019-05-23T18:55:11.256Z,44.02
2019-05-23T18:57:47.209Z,44.49
2019-05-23T19:00:22.177Z,41.38
2019-05-23T19:02:55.495Z,42.88
2019-05-23T19:05:31.101Z,44.28
2019-05-23T19:08:03.938Z,46.56
2019-05-23T19:10:35.631Z,45.90
2019-05-23T19:13:06.248Z,47.20
2019-05-23T19:15:39.174Z,48.05
2019-05-23T19:18:09.574Z,47.84
2019-05-23T19:20:41.722Z,46.27
2019-05-23T19:23:12.641Z,46.63
2019-05-23T19:25:46.991Z,45.64
2019-05-23T19:28:18.142Z,44.66
2019-05-23T19:30:49.561Z,46.32
2019-05-23T19:33:19.990Z,46.20
2019-05-23T19:35:53.388Z,46.77
2019-05-23T19:38:24.141Z,47.74
2019-05-23T19:40:55.882Z,46.58
2019-05-23T19:43:27.648Z,46.06
2019-05-23T19:45:58.157Z,45.86
2019-05-23T19:48:29.404Z,45.86
2019-05-23T19:51:00.760Z,46.02
2019-05-23T19:53:31.892Z,46.23
2019-05-23T19:56:04.358Z,47.97
2019-05-23T19:58:36.116Z,47.57
2019-05-23T20:01:07.865Z,47.03
2019-05-23T20:03:38.883Z,47.99
2019-05-23T20:06:12.532Z,46.50
2019-05-23T20:08:44.272Z,46.26
2019-05-23T20:11:14.925Z,47.98
2019-05-23T20:13:46.529Z,48.57
2019-05-23T20:16:18.751Z,46.91
2019-05-23T20:18:49.965Z,47.68
2019-05-23T20:21:20.776Z,48.14
2019-05-23T20:23:52.215Z,47.64
2019-05-23T20:26:23.448Z,46.98
2019-05-23T20:28:54.311Z,47.25
2019-05-23T20:31:24.652Z,46.90
2019-05-23T20:33:55.085Z,44.26
2019-05-23T20:36:25.636Z,45.57
2019-05-23T20:38:55.875Z,45.35
2019-05-23T20:41:28.341Z,45.86
2019-05-23T20:43:58.829Z,45.83
2019-05-23T20:46:32.647Z,46.47
2019-05-23T20:49:03.274Z,45.27
2019-05-23T20:51:34.358Z,46.30
2019-05-23T20:54:05.505Z,46.71
2019-05-23T20:56:38.133Z,46.88
2019-05-23T20:59:09.229Z,46.18
2019-05-23T21:01:41.339Z,45.11
2019-05-23T21:04:11.751Z,45.10
2019-05-23T21:06:42.386Z,45.72
2019-05-23T21:09:15.725Z,46.51
2019-05-23T21:11:45.892Z,46.32
2019-05-23T21:14:16.794Z,46.25
2019-05-23T21:16:48.189Z,45.60
2019-05-23T21:19:18.583Z,45.90
2019-05-23T21:21:50.179Z,45.80
2019-05-23T21:24:21.805Z,45.65
2019-05-23T21:26:53.377Z,45.66
2019-05-23T21:29:23.744Z,45.33
2019-05-23T21:31:55.957Z,45.95
2019-05-23T21:34:26.638Z,46.80
2019-05-23T21:36:57.328Z,47.22
2019-05-23T21:39:28.203Z,47.77
2019-05-23T21:41:59.421Z,47.34
2019-05-23T21:44:29.734Z,47.80
2019-05-23T21:47:01.571Z,47.92
2019-05-23T21:49:31.891Z,48.09
2019-05-23T21:52:02.694Z,48.39
2019-05-23T21:54:33.469Z,48.46
2019-05-23T21:57:04.921Z,47.92
2019-05-23T21:59:35.825Z,47.03
2019-05-23T22:02:17.508Z,47.68
2019-05-23T22:04:49.520Z,48.78
2019-05-23T22:07:20.791Z,50.17
2019-05-23T22:09:51.504Z,51.49
2019-05-23T22:12:22.830Z,52.60
2019-05-23T22:14:53.957Z,53.58
2019-05-23T22:17:27.974Z,53.34
2019-05-23T22:19:58.484Z,52.32
2019-05-23T22:22:29.246Z,53.70
2019-05-23T22:25:03.718Z,53.32
2019-05-23T22:27:38.228Z,53.16
2019-05-23T22:30:09.411Z,54.53
2019-05-23T22:32:40.254Z,55.60
2019-05-23T22:35:12.471Z,56.89
2019-05-23T22:37:44.746Z,57.09
2019-05-23T22:40:15.989Z,59.22
2019-05-23T22:42:46.671Z,58.86
2019-05-23T22:45:19.050Z,59.69
2019-05-23T22:47:50.785Z,60.52
2019-05-23T22:50:21.221Z,61.19
2019-05-23T22:52:51.571Z,61.48
2019-05-23T22:55:21.897Z,59.66
2019-05-23T22:57:53.836Z,58.45
2019-05-23T23:00:26.347Z,59.03
2019-05-23T23:02:56.742Z,59.16
2019-05-23T23:05:27.588Z,60.63
2019-05-23T23:08:01.486Z,61.55
2019-05-23T23:10:31.865Z,61.97
2019-05-23T23:13:02.854Z,62.17
2019-05-23T23:15:33.655Z,61.81
2019-05-23T23:18:05.513Z,61.37
2019-05-23T23:20:36.826Z,60.78
2019-05-23T23:23:07.186Z,60.72
2019-05-23T23:25:37.709Z,60.43
2019-05-23T23:28:09.067Z,60.07
2019-05-23T23:30:43.996Z,60.12
2019-05-23T23:33:14.514Z,60.29
2019-05-23T23:35:46.312Z,58.38
2019-05-23T23:38:17.410Z,56.37
2019-05-23T23:40:48.054Z,57.62
2019-05-23T23:43:18.999Z,57.88
2019-05-23T23:46:07.220Z,58.47
2019-05-23T23:48:58.152Z,58.94
2019-05-23T23:51:47.143Z,58.25
2019-05-23T23:54:35.753Z,59.04
2019-05-23T23:57:23.692Z,59.67
2019-05-23T23:59:54.406Z,60.59
